Highlands Peak, California Weather observations

Data are for observation ending at time listed.
 Day   Time    Ave.   Ave.  Ave.  Vector   Max.   Stn.    Total    Solar   Ave.  
  of    of     Air    Rel.  Wind   Wind    Wind   Baro.  Precip.   Rad.    Soil  
Year   Day     Temp.  Hum.  Speed  Dir.    Gust   Pres.                    Temp. 
2014   (PST)    F      %     mph   deg.    mph     mb.     in.     W/m2     F   
------------------------------------------------------------------------------
 261   15:50   61.1    94    5.6   282     10.4   926.2    0.00     281    75.7
 261   16:00   61.2    93    7.1   280     10.1   926.2    0.00     433    75.8
 261   16:10   61.5    91    7.8   284     11.5   926.2    0.00     427    75.8
 261   16:20   59.9    94    5.0   285      8.6   926.1    0.00     263    75.9
 261   16:30   60.3    93    5.1   275      8.8   926.0    0.00     252    76.0
 261   16:40   60.3    92    5.1   289      8.0   926.0    0.00     241    76.0
 261   16:50   60.2    92    4.8   279      7.0   926.0    0.00     336    76.0
 261   17:00   60.0    92    2.7   288      4.2   926.0    0.00     156    76.1
 261   17:10   59.3    95    2.9   287      4.5   926.0    0.00      86    76.1
 261   17:20   58.8    96    3.5   292      6.4   925.9    0.00      53    76.2
 261   17:30   58.1    96    4.8   286      7.3   925.9    0.00      23    76.1
 261   17:40   58.1    97    3.7   283      5.7   925.9    0.01      45    76.1
 261   17:50   58.2    97    3.6   301      5.3   926.0    0.00      38    76.1
 261   18:00   58.0    97    2.2   340      3.7   926.0    0.00      15    76.0
 261   18:10   57.9    97    1.8   355      3.0   925.9    0.00       6    76.0
 261   18:20   57.8    97    2.8    17      5.2   925.9    0.00       2    75.9
 261   18:30   57.8    97    3.9   298      6.5   926.0    0.00       0    75.8
 261   18:40   57.2    97    5.9   283      8.8   926.0    0.00       0    75.7
 261   18:50   57.1    97    4.2   307      5.9   926.1    0.00       0    75.6
 261   19:00   57.1    97    3.9   306      6.1   926.2    0.00       0    75.5
 261   19:10   57.0    97    4.1   339      7.3   926.2    0.00       0    75.4
 261   19:20   56.9    97    4.1    27      5.9   926.3    0.00       0    75.3
 261   19:30   56.3    97    5.7    68      7.3   926.4    0.00       0    75.3
 261   19:40   55.1    97    5.2    58      7.9   926.4    0.00       0    75.1
 261   19:50   54.6    97    4.7    31      7.2   926.5    0.00       0    74.9
 261   20:00   55.3    97    4.6     6      6.1   926.5    0.00       0    74.8
 261   20:10   55.4    97    4.5   354      7.4   926.6    0.00       0    74.7
 261   20:20   55.7    92    3.9    31      7.1   926.6    0.00       0    74.5
 261   20:30   56.1    89    4.5   334      8.0   926.6    0.00       0    74.3
 261   20:40   56.4    92    5.7   304      9.0   926.6    0.00       0    74.1
 261   20:50   56.0    92    5.8   302      9.0   926.7    0.00       0    74.0
 261   21:00   55.8    94    6.7   318      9.3   926.7    0.00       0    73.8
 261   21:10   55.8    94    6.4   322      8.0   926.7    0.00       0    73.6
 261   21:20   56.0    94    5.2   329      6.9   926.7    0.00       0    73.5
 261   21:30   56.2    92    3.0   332      4.1   926.6    0.00       0    73.3
 261   21:40   56.0    92    2.0   333      2.8   926.5    0.00       0    73.1
 261   21:50   56.8    82    2.3    66      4.5   926.5    0.00       0    72.9
 261   22:00   56.7    81    3.0    75      4.7   926.4    0.00       0    72.7
 261   22:10   56.9    79    3.4    63      4.5   926.4    0.00       0    72.7
 261   22:20   56.6    86    2.4   304      3.3   926.5    0.00       0    72.4
 261   22:30   56.4    88    2.1   314      3.2   926.6    0.00       0    72.3
 261   22:40   56.6    89    5.2   299      8.6   926.7    0.00       0    72.2
 261   22:50   56.2    91    4.8   298      8.9   926.7    0.00       0    72.0
 261   23:00   55.7    92    6.1   315      9.3   926.8    0.00       0    71.9
 261   23:10   55.9    92    5.4   305      7.8   926.9    0.00       0    71.8
 261   23:20   56.2    91    2.4   283      5.0   926.9    0.00       0    71.6
 261   23:30   56.2    90    0.1    63      1.9   926.9    0.00       0    71.4
 261   23:40  99999.0   99999  99999.0   99999    99999.0   99999.0   99999.00   99999    99999.0
 261   23:50   55.9    86    4.3    67      7.1   926.8    0.00       0    71.1
 262    0:00   55.9    84    3.8    68      4.8   926.7    0.00       0    71.0
 262    0:10   56.9    82    2.8   350      3.7   926.8    0.00       0    70.9
 262    0:20   57.2    83    2.9   329      4.7   926.8    0.00       0    70.8
 262    0:30   56.3    86    3.0   290      4.4   926.9    0.00       0    70.7
 262    0:40   54.7    88    2.0   328      2.9   927.0    0.00       0    70.5
 262    0:50   53.8    92    3.4   320      4.6   927.0    0.00       0    70.4
 262    1:00   53.7    95    4.6   333      5.8   926.9    0.00       0    70.3
 262    1:10   54.1    94    5.0    34      5.6   926.7    0.00       0    70.2
 262    1:20   55.0    88    5.0    54      5.8   926.7    0.00       0    70.1
 262    1:30   56.7    83    3.7     0      5.8   926.6    0.00       0    69.9
 262    1:40   56.8    83    3.9   303      5.6   926.5    0.00       0    69.8
 262    1:50   56.0    85    3.9   310      6.4   926.5    0.00       0    69.7
 262    2:00   55.9    85    3.6   355      5.6   926.6    0.00       0    69.6
 262    2:10   56.8    84    4.1   328      6.4   926.6    0.00       0    69.5
 262    2:20   56.0    87    5.3   316      6.4   926.6    0.00       0    69.3
 262    2:30   55.9    89    5.9   325      7.5   926.6    0.00       0    69.2
 262    2:40   56.5    86    5.6   327      7.6   926.7    0.00       0    69.2
 262    2:50   56.5    85    5.4   324      7.0   926.7    0.00       0    69.0
 262    3:00   56.6    84    4.7   337      7.7   926.6    0.00       0    69.0
 262    3:10   57.1    82    4.2   324      6.4   926.6    0.00       0    68.8
 262    3:20   57.2    81    5.8   308      8.7   926.5    0.00       0    68.6
 262    3:30   56.6    83    5.7   311      7.9   926.5    0.00       0    68.6
 262    3:40   56.3    83    4.9   315      5.7   926.5    0.00       0    68.4
 262    3:50   56.4    83    4.6    40      5.4   926.6    0.00       0    68.3
 262    4:00   57.2    80    3.8    47      4.7   926.5    0.00       0    68.3
 262    4:10   57.9    78    2.5     8      3.7   926.5    0.00       0    68.1
 262    4:20   57.5    79    3.6   296      4.5   926.6    0.00       0    68.0
 262    4:30   56.5    83    3.0   302      3.9   926.6    0.00       0    67.9
 262    4:40   56.0    84    1.9   328      3.6   926.6    0.00       0    67.9
 262    4:50   56.4    83    3.3    76      5.4   926.6    0.00       0    67.7
 262    5:00   56.4    82    2.8    72      6.5   926.7    0.00       0    67.7
 262    5:10   56.8    81    4.5    91      7.1   926.7    0.00       0    67.5
 262    5:20   59.3    75    2.5   126      3.8   926.7    0.00       0    67.1
 262    5:30   58.7    78    1.2   229      4.1   926.8    0.00       0    67.0
 262    5:40   58.2    78    2.4   129      3.9   926.9    0.00       0    66.9
 262    5:50   57.3    80    2.8    91      6.5   926.9    0.00       2    66.8
 262    6:00   56.7    82    5.8    99      7.4   927.0    0.00       5    66.4
 262    6:10   58.6    77    2.5   127      3.9   927.1    0.00       9    66.3
 262    6:20   57.8    80    4.0    58      6.1   927.2    0.00      13    66.6
 262    6:30   58.8    77    2.3    93      4.0   927.3    0.00      27    66.7
 262    6:40   59.7    75    2.3    94      3.8   927.4    0.00     132    66.6
 262    6:50   60.4    74    2.4    18      3.9   927.5    0.00     161    66.6
 262    7:00   61.1    74    3.5    75      5.6   927.6    0.00     212    66.5
 262    7:10   61.9    74    1.9    88      3.6   927.6    0.00     250    66.4
 262    7:20   63.7    70    1.3    82      2.6   927.7    0.00     288    66.3
 262    7:30   65.3    68    1.7   121      3.2   927.6    0.00     325    66.3
 262    7:40   64.5    68    1.2   221      2.2   927.7    0.00     365    66.2
 262    7:50   63.3    71    1.4   193      2.4   927.6    0.00     403    66.2
 262    8:00   64.1    70    1.6   260      2.5   927.7    0.00     439    66.3
 262    8:10   62.6    73    1.2   244      2.8   927.7    0.00     473    66.3
 262    8:20   62.8    75    2.1   231      3.1   927.7    0.00     509    66.3
 262    8:30   61.8    77    2.3   264      3.5   927.8    0.00     542    66.5
 262    8:40   62.2    77    2.0   226      3.1   927.9    0.00     575    66.6
 262    8:50   62.9    76    1.8   236      3.7   927.9    0.00     608    66.7
 262    9:00   62.9    76    1.9   258      3.5   927.9    0.00     635    66.9
 262    9:10   63.7    75    1.8   278      3.1   928.0    0.00     662    67.1
 262    9:20   64.6    73    2.6   225      4.8   927.9    0.00     692    67.2
 262    9:30   65.3    71    3.0   267      4.5   928.0    0.00     718    67.4
 262    9:40   64.8    73    3.2   272      5.8   928.0    0.00     741    67.6
 262    9:50   65.1    73    3.1   273      5.0   928.1    0.00     763    67.8
 262   10:00   65.0    73    3.3   271      5.3   928.1    0.00     785    68.1
 262   10:10   64.8    74    3.4   269      5.3   928.0    0.00     805    68.3
 262   10:20   65.0    73    3.2   269      5.3   928.0    0.00     821    68.6
 262   10:30   65.7    73    4.0   271      5.7   928.0    0.00     836    68.8
 262   10:40   65.5    72    3.4   281      6.4   928.0    0.00     850    69.1
 262   10:50   65.1    73    3.7   275      5.6   928.0    0.00     862    69.4
 262   11:00   65.5    72    4.3   271      6.8   927.9    0.00     874    69.7
 262   11:10   65.6    72    3.8   265      6.6   927.9    0.00     882    70.1
 262   11:20   66.0    70    4.6   274      7.3   927.9    0.00     890    70.4
 262   11:30   66.3    70    4.9   268      7.2   927.9    0.00     893    70.7
 262   11:40   66.6    71    4.5   270      6.8   927.9    0.00     897    71.0
 262   11:50   66.4    71    3.9   279      6.4   927.9    0.00     898    71.3
 262   12:00   65.5    73    4.2   269      7.2   927.8    0.00     897    71.7
 262   12:10   66.7    71    4.8   273      6.7   927.7    0.00     896    72.0
 262   12:20   67.4    69    4.6   276      8.0   927.7    0.00     893    72.2
 262   12:30   67.2    69    4.4   264      7.1   927.6    0.00     889    72.6
 262   12:40   67.5    68    4.8   272      7.5   927.5    0.00     881    73.0
 262   12:50   67.2    68    5.0   262      7.5   927.4    0.00     872    73.4
 262   13:00   67.9    67    5.4   265      8.1   927.4    0.00     861    73.7
 262   13:10   68.3    65    5.4   270      8.0   927.4    0.00     848    74.0
 262   13:20   68.1    65    5.3   261      8.0   927.4    0.00     834    74.5
 262   13:30   68.3    64    5.1   268      8.0   927.3    0.00     818    74.8
 262   13:40   68.8    62    5.1   270      8.6   927.3    0.00     800    75.1
 262   13:50   68.8    62    5.0   270      8.1   927.2    0.00     779    75.6
 262   14:00   68.6    62    5.3   273      8.1   927.1    0.00     758    76.0
 262   14:10   68.4    60    5.0   267      7.7   927.1    0.00     739    76.4
 262   14:20   68.6    59    5.2   273      9.3   927.0    0.00     707    76.7
 262   14:30   69.5    57    5.4   270      8.3   927.0    0.00     683    77.0
 262   14:40   69.5    56    4.8   266      8.0   926.9    0.00     666    77.4
 262   14:50   69.6    56    5.6   270      8.4   926.8    0.00     640    77.6
 262   15:00   69.8    55    5.3   277      8.4   926.8    0.00     608    77.8
 262   15:10   69.6    56    5.9   274      9.9   926.7    0.00     578    78.1
 262   15:20   68.9    55    5.0   273      8.3   926.7    0.00     547    78.3
 262   15:30   69.5    55    4.8   273      7.7   926.7    0.00     514    78.4
 262   15:40   69.2    53    4.1   271      6.6   926.7    0.00     481    78.6

Return to Highlands Peak graphs page.


Western Regional Climate Center,wrcc@dri.edu